Terminal Aerodrome Forecast
Issued by NWS Pittsburgh, PA

Current Version | Previous Version | Graphics & Text | Print | Product List | Glossary On
Versions: 1 2 3 4 5 6 7 8 9 10 11 12 13 14 15 16 17 18 19 20 21 22 23 24 25 26 27 28
789
FTUS41 KPBZ 221652 AAB
TAFPIT
TAF AMD
KPIT 221652Z 2217/2318 23014G22KT P6SM VCTS BKN050CB
     FM222000 23013G21KT 6SM -SHRA VCTS OVC035CB
     FM230200 27008KT P6SM BKN025
     FM230900 31005KT P6SM SCT025=

USA.gov is the U.S. government's official web portal to all federal, state and local government web resources and services.